createdAt,value
2022-11-02T00:02:39.906Z,38.23
2022-11-02T00:03:42.826Z,38.45
2022-11-02T00:04:45.236Z,38.58
2022-11-02T00:05:47.453Z,38.21
2022-11-02T00:06:49.634Z,37.81
2022-11-02T00:07:52.795Z,37.93
2022-11-02T00:08:55.722Z,37.65
2022-11-02T00:09:58.926Z,37.76
2022-11-02T00:11:01.211Z,38.78
2022-11-02T00:12:05.193Z,37.77
2022-11-02T00:13:07.655Z,37.31
2022-11-02T00:14:11.250Z,37.98
2022-11-02T00:15:14.415Z,37.84
2022-11-02T00:16:17.711Z,37.48
2022-11-02T00:17:19.840Z,36.86
2022-11-02T00:18:21.939Z,38.04
2022-11-02T00:19:24.141Z,37.38
2022-11-02T00:21:37.521Z,37.79
2022-11-02T00:22:39.929Z,37.79
2022-11-02T00:23:42.578Z,37.90
2022-11-02T00:24:45.310Z,37.83
2022-11-02T00:25:48.101Z,37.67
2022-11-02T00:26:51.736Z,37.45
2022-11-02T00:27:54.043Z,37.47
2022-11-02T00:28:56.141Z,38.18
2022-11-02T00:29:58.967Z,37.61
2022-11-02T00:31:03.282Z,37.65
2022-11-02T00:32:06.421Z,37.39
2022-11-02T00:33:09.258Z,37.31
2022-11-02T00:34:12.698Z,37.50
2022-11-02T00:35:15.092Z,37.26
2022-11-02T00:36:18.689Z,36.99
2022-11-02T00:37:20.865Z,36.54
2022-11-02T00:38:23.098Z,36.37
2022-11-02T00:39:26.562Z,36.72
2022-11-02T00:40:28.796Z,36.42
2022-11-02T00:41:31.454Z,36.58
2022-11-02T00:42:33.552Z,36.48
2022-11-02T00:43:35.656Z,36.05
2022-11-02T00:44:37.689Z,36.64
2022-11-02T00:45:40.826Z,36.59
2022-11-02T00:46:45.426Z,36.36
2022-11-02T00:47:48.434Z,36.13
2022-11-02T00:48:50.896Z,36.07
2022-11-02T00:49:53.315Z,36.49
2022-11-02T00:50:57.016Z,35.75
2022-11-02T00:52:00.337Z,36.33
2022-11-02T00:53:02.606Z,35.71
2022-11-02T00:54:05.251Z,36.11
2022-11-02T00:55:08.342Z,35.52
2022-11-02T00:56:11.003Z,35.84
2022-11-02T00:57:13.199Z,35.40
2022-11-02T00:58:15.310Z,35.53
2022-11-02T00:59:17.614Z,35.94
2022-11-02T01:00:19.934Z,35.35
2022-11-02T01:01:22.424Z,35.70
2022-11-02T01:02:24.834Z,35.52
2022-11-02T01:03:28.951Z,35.61
2022-11-02T01:04:31.050Z,35.52
2022-11-02T01:05:33.681Z,35.43
2022-11-02T01:06:35.887Z,38.25
2022-11-02T01:07:38.245Z,38.25
2022-11-02T01:08:41.166Z,38.18
2022-11-02T01:09:43.527Z,38.33
2022-11-02T01:10:48.338Z,38.37
2022-11-02T01:11:52.114Z,38.78
2022-11-02T01:12:54.516Z,39.03
2022-11-02T01:13:57.174Z,39.12
2022-11-02T01:15:00.786Z,39.34
2022-11-02T01:16:04.378Z,39.41
2022-11-02T01:17:06.805Z,39.67
2022-11-02T01:18:10.162Z,39.83
2022-11-02T01:19:12.482Z,40.04
2022-11-02T01:20:15.543Z,40.17
2022-11-02T01:21:19.500Z,40.41
2022-11-02T01:22:21.952Z,40.52
2022-11-02T01:23:24.461Z,40.72
2022-11-02T01:24:26.729Z,40.83
2022-11-02T01:25:29.017Z,40.92
2022-11-02T01:26:31.632Z,41.00
2022-11-02T01:27:34.319Z,41.19
2022-11-02T01:28:36.638Z,41.29
2022-11-02T01:29:39.678Z,41.38
2022-11-02T01:30:41.856Z,41.46
2022-11-02T01:31:43.952Z,41.53
2022-11-02T01:32:46.048Z,41.63
2022-11-02T01:33:49.189Z,41.67
2022-11-02T01:34:52.404Z,41.72
2022-11-02T01:35:54.728Z,41.83
2022-11-02T01:36:58.465Z,41.94
2022-11-02T01:38:02.383Z,42.03
2022-11-02T01:39:07.058Z,42.09
2022-11-02T01:40:10.634Z,42.21
2022-11-02T01:41:12.997Z,42.22
2022-11-02T01:43:35.506Z,42.41
2022-11-02T01:44:37.804Z,42.46
2022-11-02T01:45:40.012Z,42.51
2022-11-02T01:46:44.426Z,42.56
2022-11-02T01:47:47.382Z,42.62
2022-11-02T01:50:24.466Z,42.77
2022-11-02T01:51:36.504Z,42.81
2022-11-02T01:52:38.874Z,42.88
2022-11-02T01:53:43.692Z,42.98
2022-11-02T01:54:51.993Z,43.04
2022-11-02T01:55:54.059Z,43.10
2022-11-02T01:57:01.295Z,43.20
2022-11-02T01:58:07.633Z,43.27
2022-11-02T01:59:12.779Z,43.27
2022-11-02T02:00:15.965Z,43.32
2022-11-02T02:01:19.604Z,43.38
2022-11-02T02:02:23.658Z,43.40
2022-11-02T02:03:26.052Z,43.44
2022-11-02T02:04:28.506Z,43.51
2022-11-02T02:05:33.646Z,43.57
2022-11-02T02:06:36.057Z,43.65
2022-11-02T02:07:40.022Z,43.68
2022-11-02T02:08:44.742Z,43.71
2022-11-02T02:09:51.401Z,43.78
2022-11-02T02:10:56.511Z,43.81
2022-11-02T02:11:58.845Z,43.87
2022-11-02T02:13:00.964Z,43.93
2022-11-02T02:14:08.851Z,44.00
2022-11-02T02:15:13.374Z,44.04
2022-11-02T02:16:32.534Z,44.14
2022-11-02T02:17:41.768Z,44.18
2022-11-02T02:18:47.895Z,44.17
2022-11-02T02:20:09.204Z,44.24
2022-11-02T02:21:33.474Z,44.28
2022-11-02T02:22:57.856Z,44.33
2022-11-02T02:24:15.676Z,44.36
2022-11-02T02:29:24.581Z,44.69
2022-11-02T02:30:26.926Z,44.79
2022-11-02T02:31:42.167Z,44.78
2022-11-02T02:34:20.430Z,44.93
2022-11-02T02:36:51.840Z,45.07
2022-11-02T02:39:21.942Z,45.13
2022-11-02T02:40:39.068Z,45.14
2022-11-02T02:41:44.391Z,45.19
2022-11-02T02:42:55.599Z,45.13
2022-11-02T02:43:57.838Z,45.20
2022-11-02T02:45:06.271Z,45.28
2022-11-02T02:47:28.166Z,45.29
2022-11-02T02:48:31.859Z,45.29
2022-11-02T02:49:39.973Z,45.30
2022-11-02T02:50:49.656Z,45.30
2022-11-02T02:51:52.731Z,45.34
2022-11-02T02:52:55.495Z,45.34
2022-11-02T02:54:07.193Z,45.34
2022-11-02T02:55:16.534Z,45.34
2022-11-02T02:56:20.808Z,45.37
2022-11-02T02:57:23.085Z,45.40
2022-11-02T02:59:44.206Z,45.46
2022-11-02T03:00:47.136Z,45.66
2022-11-02T03:01:49.433Z,45.56
2022-11-02T03:02:51.767Z,45.53
2022-11-02T03:03:54.001Z,45.48
2022-11-02T03:04:56.957Z,45.44
2022-11-02T03:07:33.997Z,45.52
2022-11-02T03:08:37.457Z,45.52
2022-11-02T03:09:40.798Z,45.46
2022-11-02T03:12:16.752Z,45.59
2022-11-02T03:13:40.547Z,45.56
2022-11-02T03:15:02.284Z,45.58
2022-11-02T03:16:20.760Z,45.57
2022-11-02T03:17:26.864Z,45.53
2022-11-02T03:20:07.446Z,45.61
2022-11-02T03:21:27.741Z,45.65
2022-11-02T03:22:39.620Z,45.66
2022-11-02T03:25:06.414Z,46.01
2022-11-02T03:26:21.586Z,45.93
2022-11-02T03:29:17.718Z,45.94
2022-11-02T03:30:21.601Z,45.96
2022-11-02T03:31:51.374Z,45.96
2022-11-02T03:34:46.766Z,46.02
2022-11-02T03:36:14.447Z,46.08
2022-11-02T03:37:28.805Z,46.06
2022-11-02T03:38:47.179Z,46.12
2022-11-02T03:39:52.971Z,46.12
2022-11-02T03:40:55.209Z,46.24
2022-11-02T03:41:59.713Z,46.22
2022-11-02T03:43:02.658Z,46.23
2022-11-02T03:45:21.531Z,46.30
2022-11-02T03:46:24.266Z,46.34
2022-11-02T03:47:26.461Z,46.32
2022-11-02T03:48:30.710Z,46.32
2022-11-02T03:49:33.057Z,46.33
2022-11-02T03:50:36.641Z,46.35
2022-11-02T03:51:41.072Z,46.32
2022-11-02T03:52:46.461Z,46.31
2022-11-02T03:53:55.151Z,46.30
2022-11-02T03:55:01.476Z,46.31
2022-11-02T03:56:08.938Z,46.57
2022-11-02T03:57:21.448Z,46.70
2022-11-02T03:58:23.579Z,46.67
2022-11-02T03:59:29.642Z,46.63
2022-11-02T04:00:33.854Z,46.66
2022-11-02T04:02:57.397Z,46.67
2022-11-02T04:04:00.748Z,46.78
2022-11-02T04:05:03.503Z,46.88
2022-11-02T04:06:07.465Z,47.17
2022-11-02T04:07:10.312Z,47.40
2022-11-02T04:08:13.677Z,47.42
2022-11-02T04:09:16.059Z,47.92
2022-11-02T04:10:19.428Z,47.91
2022-11-02T04:11:22.070Z,48.07
2022-11-02T04:12:25.349Z,48.40
2022-11-02T04:13:28.228Z,48.59
2022-11-02T04:14:30.595Z,48.59
2022-11-02T06:10:16.011Z,56.99
2022-11-02T06:11:18.168Z,57.23
2022-11-02T06:12:20.249Z,57.23
2022-11-02T06:13:23.217Z,57.24
2022-11-02T06:14:25.316Z,57.24
2022-11-02T06:15:29.606Z,57.12
2022-11-02T06:16:31.876Z,56.97
2022-11-02T06:17:39.039Z,56.71
2022-11-02T06:18:41.520Z,56.47
2022-11-02T06:19:44.476Z,56.21
2022-11-02T06:20:46.590Z,55.96
2022-11-02T06:21:50.449Z,55.78
2022-11-02T06:22:53.009Z,55.52
2022-11-02T06:23:56.381Z,55.25
2022-11-02T06:24:59.590Z,55.01
2022-11-02T06:26:01.854Z,54.74
2022-11-02T06:27:03.938Z,54.48
2022-11-02T06:28:06.147Z,54.21
2022-11-02T06:29:08.249Z,54.02
2022-11-02T06:30:12.281Z,53.79
2022-11-02T06:31:14.555Z,53.58
2022-11-02T06:32:16.651Z,53.30
2022-11-02T06:33:19.358Z,53.21
2022-11-02T06:34:21.463Z,53.02
2022-11-02T06:35:24.033Z,52.85
2022-11-02T06:36:26.691Z,52.71
2022-11-02T06:37:34.155Z,52.55
2022-11-02T06:38:36.594Z,52.47
2022-11-02T06:39:40.211Z,52.26
2022-11-02T06:43:10.804Z,51.92
2022-11-02T06:43:53.880Z,51.83
2022-11-02T06:49:05.701Z,51.47
2022-11-02T06:51:11.335Z,51.30
2022-11-02T06:52:13.935Z,51.10
2022-11-02T06:53:16.105Z,51.10
2022-11-02T06:57:26.153Z,50.88
2022-11-02T06:58:28.367Z,50.78
2022-11-02T06:59:32.400Z,50.72
2022-11-02T07:02:41.592Z,50.54
2022-11-02T07:03:45.162Z,50.52
2022-11-02T07:04:48.093Z,50.45
2022-11-02T07:05:51.646Z,50.40
2022-11-02T07:06:53.944Z,50.35
2022-11-02T07:07:57.507Z,50.34
2022-11-02T07:08:59.914Z,50.20
2022-11-02T07:10:03.916Z,50.20
2022-11-02T07:11:06.079Z,50.41
2022-11-02T07:12:08.285Z,50.34
2022-11-02T07:13:11.472Z,50.29
2022-11-02T07:14:13.620Z,50.23
2022-11-02T07:15:15.892Z,50.22
2022-11-02T07:16:18.262Z,50.23
2022-11-02T07:17:21.046Z,50.16
2022-11-02T07:18:25.132Z,50.20
2022-11-02T07:19:29.110Z,50.09
2022-11-02T07:20:31.801Z,50.07
2022-11-02T07:21:33.915Z,50.14
2022-11-02T07:22:37.689Z,50.13
2022-11-02T07:23:41.235Z,50.11
2022-11-02T07:24:43.743Z,50.05
2022-11-02T07:25:45.971Z,49.92
2022-11-02T07:26:48.774Z,49.92
2022-11-02T07:27:50.916Z,49.98
2022-11-02T07:28:56.748Z,49.96
2022-11-02T07:29:58.702Z,49.95
2022-11-02T07:31:01.100Z,49.91
2022-11-02T07:32:03.458Z,50.08
2022-11-02T07:33:05.844Z,50.06
2022-11-02T07:34:12.767Z,50.06
2022-11-02T07:35:14.020Z,50.07
2022-11-02T07:36:16.150Z,50.05
2022-11-02T07:37:18.170Z,50.14
2022-11-02T07:38:20.401Z,50.13
2022-11-02T07:39:22.480Z,50.13
2022-11-02T07:40:25.451Z,50.11
2022-11-02T07:41:27.550Z,50.04
2022-11-02T07:42:29.661Z,50.04
2022-11-02T07:43:34.071Z,50.01
2022-11-02T07:44:41.131Z,50.01
2022-11-02T07:45:44.621Z,49.98
2022-11-02T07:46:47.391Z,49.96
2022-11-02T07:47:49.955Z,49.94
2022-11-02T07:48:52.175Z,49.94
2022-11-02T07:49:54.263Z,49.93
2022-11-02T07:50:58.203Z,49.88
2022-11-02T07:52:00.848Z,49.88
2022-11-02T07:53:03.125Z,49.88
2022-11-02T07:54:06.085Z,49.89
2022-11-02T07:55:08.732Z,49.85
2022-11-02T07:56:12.065Z,49.87
2022-11-02T07:57:14.765Z,49.87
2022-11-02T07:58:17.401Z,49.87
2022-11-02T07:59:20.882Z,49.85
2022-11-02T08:00:24.166Z,49.83
2022-11-02T08:01:26.417Z,49.83
2022-11-02T08:04:32.851Z,49.80
2022-11-02T08:05:37.929Z,49.82
2022-11-02T08:06:40.668Z,49.76
2022-11-02T08:07:43.793Z,49.76
2022-11-02T08:08:46.259Z,49.78
2022-11-02T08:09:48.771Z,49.74
2022-11-02T08:11:56.680Z,49.74
2022-11-02T08:12:58.898Z,49.74
2022-11-02T08:14:01.968Z,49.75
2022-11-02T08:15:07.785Z,49.72
2022-11-02T08:16:10.534Z,49.78
2022-11-02T08:17:13.955Z,49.76
2022-11-02T08:19:21.638Z,49.76
2022-11-02T08:21:25.927Z,49.73
2022-11-02T08:27:40.611Z,49.67
2022-11-02T08:33:54.706Z,49.68
2022-11-02T08:34:57.571Z,49.54
2022-11-02T08:37:13.459Z,49.20
2022-11-02T08:38:15.968Z,49.09
2022-11-02T08:39:19.216Z,48.97
2022-11-02T08:40:23.088Z,48.97
2022-11-02T08:41:26.082Z,48.84
2022-11-02T08:42:28.871Z,48.61
2022-11-02T08:43:32.045Z,48.51
2022-11-02T08:44:36.612Z,48.31
2022-11-02T08:46:12.784Z,48.21
2022-11-02T08:46:43.959Z,48.11
2022-11-02T08:47:46.147Z,47.92
2022-11-02T08:48:48.319Z,47.88
2022-11-02T08:49:50.396Z,47.87
2022-11-02T08:50:52.981Z,47.86
2022-11-02T08:51:56.345Z,47.86
2022-11-02T08:52:59.454Z,47.81
2022-11-02T08:54:01.590Z,47.81
2022-11-02T08:55:05.266Z,47.71
2022-11-02T08:56:08.045Z,47.75
2022-11-02T08:57:10.791Z,47.69
2022-11-02T08:58:13.811Z,47.65
2022-11-02T08:59:16.102Z,47.60
2022-11-02T09:00:19.551Z,47.57
2022-11-02T09:01:21.638Z,47.46
2022-11-02T09:02:25.564Z,47.74
2022-11-02T09:03:28.606Z,47.60
2022-11-02T09:04:31.062Z,47.61
2022-11-02T09:05:38.044Z,47.68
2022-11-02T09:06:41.974Z,46.77
2022-11-02T09:07:45.548Z,46.83
2022-11-02T09:08:49.229Z,46.61
2022-11-02T09:09:52.013Z,46.38
2022-11-02T09:10:58.582Z,46.56
2022-11-02T09:12:00.935Z,46.49
2022-11-02T09:13:05.155Z,46.20
2022-11-02T09:14:07.646Z,46.20
2022-11-02T09:15:12.507Z,46.14
2022-11-02T09:16:16.580Z,45.92
2022-11-02T09:17:19.429Z,45.97
2022-11-02T09:18:22.353Z,46.10
2022-11-02T09:19:24.735Z,46.19
2022-11-02T09:20:27.689Z,46.45
2022-11-02T09:21:29.860Z,46.45
2022-11-02T09:22:33.216Z,46.54
2022-11-02T09:23:36.262Z,46.57
2022-11-02T09:24:39.014Z,46.59
2022-11-02T09:25:42.865Z,46.59
2022-11-02T09:26:45.765Z,46.63
2022-11-02T09:27:55.605Z,46.64
2022-11-02T09:28:59.380Z,46.61
2022-11-02T09:30:03.912Z,46.57
2022-11-02T09:31:10.555Z,46.69
2022-11-02T09:32:11.156Z,46.55
2022-11-02T09:33:13.713Z,46.70
2022-11-02T09:34:15.809Z,46.71
2022-11-02T09:35:18.140Z,46.79
2022-11-02T09:36:20.233Z,46.83
2022-11-02T09:37:22.244Z,46.80
2022-11-02T09:38:24.359Z,46.74
2022-11-02T09:39:27.066Z,46.78
2022-11-02T09:40:41.356Z,46.76
2022-11-02T09:41:50.636Z,46.68
2022-11-02T09:43:02.916Z,46.59
2022-11-02T09:44:10.241Z,46.46
2022-11-02T09:45:16.803Z,46.31
2022-11-02T09:46:27.977Z,46.13
2022-11-02T09:48:41.515Z,46.01
2022-11-02T09:49:43.650Z,45.97
2022-11-02T09:50:53.468Z,46.06
2022-11-02T09:51:58.113Z,46.19
2022-11-02T09:53:02.624Z,46.34
2022-11-02T09:54:31.270Z,46.57
2022-11-02T09:55:35.000Z,46.60
2022-11-02T09:56:37.613Z,46.56
2022-11-02T09:57:39.752Z,46.50
2022-11-02T09:58:42.784Z,46.53
2022-11-02T09:59:45.324Z,46.45
2022-11-02T10:00:47.812Z,46.42
2022-11-02T10:01:59.303Z,47.61
2022-11-02T10:03:05.260Z,49.39
2022-11-02T10:04:31.455Z,49.59
2022-11-02T10:05:42.457Z,49.80
2022-11-02T10:06:49.387Z,49.44
2022-11-02T14:36:38.217Z,50.05
2022-11-02T14:39:40.875Z,49.53
2022-11-02T14:40:47.958Z,49.36
2022-11-02T14:43:37.417Z,48.86
2022-11-02T14:44:52.095Z,48.71
2022-11-02T14:46:14.404Z,48.69
2022-11-02T14:47:16.556Z,48.59
2022-11-02T14:48:18.901Z,48.35
2022-11-02T14:49:27.795Z,48.37
2022-11-02T14:50:30.958Z,48.27
2022-11-02T14:51:36.652Z,48.09
2022-11-02T14:52:39.848Z,47.89
2022-11-02T14:53:42.001Z,47.93
2022-11-02T14:54:52.593Z,47.94
2022-11-02T14:55:56.513Z,47.88
2022-11-02T14:57:07.193Z,47.81
2022-11-02T14:58:18.607Z,47.74
2022-11-02T14:59:39.268Z,47.51
2022-11-02T15:00:52.501Z,47.41
2022-11-02T15:01:57.248Z,47.36
2022-11-02T15:03:00.892Z,47.24
2022-11-02T15:04:06.803Z,47.15
2022-11-02T15:05:24.954Z,47.07
2022-11-02T15:06:27.853Z,46.93
2022-11-02T15:07:37.181Z,46.89
2022-11-02T15:08:54.202Z,46.76
2022-11-02T15:11:48.468Z,46.35
2022-11-02T15:12:50.577Z,46.10
2022-11-02T15:13:53.692Z,45.99
2022-11-02T15:14:58.783Z,45.91
2022-11-02T15:16:14.187Z,45.87
2022-11-02T15:17:21.059Z,45.89
2022-11-02T15:18:31.340Z,46.02
2022-11-02T15:19:43.972Z,46.08
2022-11-02T15:20:46.799Z,46.14
2022-11-02T15:21:50.174Z,46.07
2022-11-02T15:23:24.061Z,46.13
2022-11-02T15:25:44.831Z,45.66
2022-11-02T15:28:06.948Z,45.76
2022-11-02T15:30:44.300Z,45.91
2022-11-02T15:31:50.261Z,45.89
2022-11-02T15:33:01.482Z,45.93
2022-11-02T15:34:06.694Z,45.89
2022-11-02T15:35:18.508Z,45.80
2022-11-02T15:36:35.653Z,45.57
2022-11-02T15:37:56.484Z,45.47
2022-11-02T15:38:46.576Z,45.27
2022-11-02T15:41:41.102Z,44.88
2022-11-02T15:44:52.689Z,44.87
2022-11-02T15:46:34.010Z,45.04
2022-11-02T15:47:58.529Z,45.26
2022-11-02T15:49:12.054Z,45.31
2022-11-02T15:50:31.656Z,45.20
2022-11-02T15:51:57.435Z,45.33
2022-11-02T15:53:25.501Z,45.08
2022-11-02T15:54:43.418Z,45.38
2022-11-02T15:56:03.029Z,45.19
2022-11-02T15:57:21.328Z,44.82
2022-11-02T15:58:39.575Z,45.40
2022-11-02T16:01:12.796Z,45.38
2022-11-02T16:03:31.193Z,45.33
2022-11-02T16:04:33.213Z,45.30
2022-11-02T16:05:49.506Z,45.15
2022-11-02T16:06:52.110Z,45.24
2022-11-02T16:08:10.392Z,46.10
2022-11-02T16:09:00.687Z,47.05
2022-11-02T16:10:21.866Z,47.51
2022-11-02T16:11:24.088Z,47.78
2022-11-02T16:12:30.448Z,48.23
2022-11-02T16:13:48.815Z,48.13
2022-11-02T16:14:38.444Z,48.34
2022-11-02T16:15:40.583Z,48.32
2022-11-02T16:16:49.283Z,48.38
2022-11-02T16:17:52.967Z,47.62
2022-11-02T16:18:54.972Z,47.38
2022-11-02T16:21:24.491Z,48.64
2022-11-02T16:22:26.627Z,48.51
2022-11-02T16:23:30.838Z,48.16
2022-11-02T16:24:33.864Z,48.36
2022-11-02T16:25:46.787Z,47.60
2022-11-02T16:26:49.681Z,47.51
2022-11-02T16:27:52.890Z,47.41
2022-11-02T16:28:57.684Z,48.66
2022-11-02T16:30:00.910Z,48.43
2022-11-02T16:31:18.931Z,48.41
2022-11-02T16:32:20.059Z,48.41
2022-11-02T16:33:22.478Z,48.78
2022-11-02T16:34:27.880Z,48.93
2022-11-02T16:35:30.603Z,48.83
2022-11-02T16:36:36.024Z,48.64
2022-11-02T16:37:38.098Z,48.72
2022-11-02T16:38:45.273Z,48.58
2022-11-02T16:39:48.083Z,48.24
2022-11-02T16:40:50.793Z,48.05
2022-11-02T16:41:53.755Z,48.05
2022-11-02T16:42:56.225Z,47.67
2022-11-02T16:44:00.695Z,47.34
2022-11-02T16:45:04.782Z,47.23
2022-11-02T16:46:06.927Z,47.46
2022-11-02T16:47:13.245Z,47.56
2022-11-02T16:49:54.887Z,47.38
2022-11-02T16:51:18.014Z,47.27
2022-11-02T16:52:22.433Z,47.41
2022-11-02T16:54:41.486Z,48.10
2022-11-02T16:55:44.811Z,47.68
2022-11-02T16:56:49.492Z,47.99
2022-11-02T16:57:51.877Z,47.83
2022-11-02T16:59:06.172Z,48.03
2022-11-02T17:00:19.840Z,48.17
2022-11-02T17:01:22.218Z,48.12
2022-11-02T17:02:37.184Z,47.88
2022-11-02T17:03:39.515Z,47.77
2022-11-02T17:04:44.298Z,47.65
2022-11-02T17:05:47.718Z,47.73
2022-11-02T17:06:52.575Z,47.68
2022-11-02T17:08:03.844Z,47.59
2022-11-02T17:09:24.301Z,47.53
2022-11-02T17:10:28.041Z,47.86
2022-11-02T17:11:30.273Z,47.83
2022-11-02T17:12:37.284Z,47.97
2022-11-02T17:13:45.682Z,47.80
2022-11-02T17:14:48.049Z,48.01
2022-11-02T17:15:50.832Z,48.05
2022-11-02T17:16:58.825Z,47.82
2022-11-02T17:18:11.441Z,47.87
2022-11-02T17:20:45.593Z,47.88
2022-11-02T17:21:48.389Z,47.66
2022-11-02T17:22:53.417Z,47.31
2022-11-02T17:23:56.739Z,47.53
2022-11-02T17:25:14.078Z,47.59
2022-11-02T17:26:23.156Z,47.66
2022-11-02T17:27:26.849Z,47.74
2022-11-02T17:28:45.279Z,47.76
2022-11-02T17:29:47.343Z,47.69
2022-11-02T17:30:51.081Z,47.67
2022-11-02T17:31:54.355Z,47.82
2022-11-02T17:32:57.094Z,47.90
2022-11-02T17:35:14.246Z,48.21
2022-11-02T17:36:18.339Z,48.32
2022-11-02T17:38:40.405Z,48.43
2022-11-02T17:39:42.626Z,48.46
2022-11-02T17:40:45.168Z,48.47
2022-11-02T17:41:52.228Z,48.53
2022-11-02T17:42:56.665Z,48.48
2022-11-02T17:43:59.717Z,48.50
2022-11-02T17:45:24.079Z,48.51
2022-11-02T17:46:26.372Z,48.63
2022-11-02T17:47:29.293Z,48.52
2022-11-02T17:48:34.065Z,48.51
2022-11-02T17:49:36.250Z,48.46
2022-11-02T17:50:38.959Z,48.43
2022-11-02T17:51:41.663Z,48.50
2022-11-02T17:52:44.447Z,48.50
2022-11-02T17:53:48.601Z,48.43
2022-11-02T17:54:51.558Z,48.42
2022-11-02T17:55:54.458Z,48.38
2022-11-02T17:56:56.641Z,48.33
2022-11-02T17:57:59.193Z,48.32
2022-11-02T17:59:02.704Z,48.32
2022-11-02T18:00:06.395Z,48.30
2022-11-02T18:01:11.643Z,48.14
2022-11-02T18:02:14.737Z,48.10
2022-11-02T18:03:18.200Z,48.16
2022-11-02T18:04:20.394Z,48.22
2022-11-02T18:05:24.970Z,48.29
2022-11-02T18:06:27.252Z,48.25
2022-11-02T18:07:29.724Z,48.21
2022-11-02T18:08:31.899Z,48.21
2022-11-02T18:09:34.242Z,48.23
2022-11-02T18:10:41.313Z,48.21
2022-11-02T18:11:43.905Z,48.16
2022-11-02T18:12:46.493Z,48.17
2022-11-02T18:13:48.988Z,48.18
2022-11-02T18:14:51.305Z,48.23
2022-11-02T18:15:55.276Z,48.21
2022-11-02T18:16:58.166Z,48.26
2022-11-02T18:18:00.695Z,48.22
2022-11-02T18:19:02.887Z,48.20
2022-11-02T18:20:06.229Z,48.13
2022-11-02T18:21:10.776Z,48.15
2022-11-02T18:22:13.084Z,48.13
2022-11-02T18:23:16.117Z,48.13
2022-11-02T18:24:18.822Z,48.19
2022-11-02T18:26:24.813Z,48.14
2022-11-02T18:27:28.857Z,48.11
2022-11-02T18:28:31.968Z,48.13
2022-11-02T22:59:06.159Z,53.79
2022-11-02T23:00:10.463Z,54.61
2022-11-02T23:01:16.398Z,54.62
2022-11-02T23:02:19.306Z,54.47
2022-11-02T23:03:21.751Z,54.39
2022-11-02T23:04:24.388Z,54.33
2022-11-02T23:05:28.258Z,53.64
2022-11-02T23:06:30.822Z,53.35
2022-11-02T23:07:34.180Z,52.65
2022-11-02T23:08:42.188Z,51.86
2022-11-02T23:09:44.710Z,51.88
2022-11-02T23:10:50.523Z,51.17
2022-11-02T23:11:52.372Z,51.30
2022-11-02T23:12:54.843Z,50.93
2022-11-02T23:14:04.223Z,50.71
2022-11-02T23:15:06.644Z,50.37
2022-11-02T23:16:09.524Z,49.69
2022-11-02T23:17:12.378Z,49.69
2022-11-02T23:18:15.009Z,49.22
2022-11-02T23:19:23.508Z,49.04
2022-11-02T23:20:23.607Z,48.53
2022-11-02T23:21:26.270Z,48.74
2022-11-02T23:22:29.133Z,48.43
2022-11-02T23:23:31.245Z,48.30
2022-11-02T23:24:33.342Z,48.28
2022-11-02T23:25:36.090Z,48.09
2022-11-02T23:26:39.323Z,47.82
2022-11-02T23:30:01.105Z,47.23
2022-11-02T23:31:03.772Z,47.07
2022-11-02T23:32:09.411Z,46.98
2022-11-02T23:33:12.791Z,46.78
2022-11-02T23:34:15.493Z,46.80
2022-11-02T23:35:17.756Z,46.66
2022-11-02T23:36:20.016Z,46.54
2022-11-02T23:37:22.270Z,46.46
2022-11-02T23:38:24.439Z,46.37
2022-11-02T23:39:26.551Z,46.28
2022-11-02T23:40:28.847Z,46.08
2022-11-02T23:41:32.906Z,45.93
2022-11-02T23:42:35.083Z,46.00
2022-11-02T23:43:37.345Z,45.80
2022-11-02T23:44:40.453Z,45.83
2022-11-02T23:45:42.675Z,45.65
2022-11-02T23:46:47.701Z,45.60
2022-11-02T23:47:53.498Z,45.65
2022-11-02T23:49:00.295Z,45.50
2022-11-02T23:50:05.584Z,45.39
2022-11-02T23:51:10.611Z,45.42
2022-11-02T23:52:19.122Z,45.20
2022-11-02T23:53:23.301Z,44.77
2022-11-02T23:54:25.837Z,45.04
2022-11-02T23:55:30.945Z,45.54
2022-11-02T23:56:33.130Z,45.43
2022-11-02T23:57:35.270Z,45.49
2022-11-02T23:58:37.908Z,44.61
2022-11-02T23:59:41.151Z,44.76
